Time;durP1;ratioP1;P1;durP2;ratioP2;P2;SDS_P1;SDS_P2;PMS_P1;PMS_P2;Temp;Humidity;BMP_temperature;BMP_pressure;BME280_temperature;BME280_humidity;BME280_pressure;Samples;Min_cycle;Max_cycle;Signal;HPM_P1;HPM_P2
2022/05/25 00:01:36;;;;;;;7.90;3.70;;;17.10;81.10;;;;;;5015614;28;20524;-66
2022/05/25 00:04:04;;;;;;;6.65;3.55;;;17.00;81.20;;;;;;5016471;28;20354;-66
2022/05/25 00:06:29;;;;;;;5.43;3.15;;;17.00;81.70;;;;;;5000776;28;20026;-65
2022/05/25 00:08:56;;;;;;;5.88;3.35;;;17.00;81.80;;;;;;5012748;28;20048;-66
2022/05/25 00:11:21;;;;;;;6.53;3.63;;;17.00;81.70;;;;;;5003856;28;20057;-66
2022/05/25 00:13:47;;;;;;;4.53;3.03;;;17.00;81.70;;;;;;5006089;28;20049;-66
2022/05/25 00:16:12;;;;;;;3.75;2.78;;;17.00;81.70;;;;;;5009686;28;20026;-66
2022/05/25 00:19:58;;;;;;;4.38;2.75;;;17.00;81.60;;;;;;5009180;28;20481;-66
2022/05/25 00:21:24;;;;;;;5.40;2.67;;;16.90;82.20;;;;;;5000021;28;20034;-67
2022/05/25 00:23:49;;;;;;;6.03;3.10;;;16.90;82.00;;;;;;5014337;28;20106;-66
2022/05/25 00:26:15;;;;;;;3.95;2.70;;;16.80;81.90;;;;;;5026321;28;20113;-66
2022/05/25 00:28:40;;;;;;;6.93;3.45;;;16.80;82.00;;;;;;5004909;28;20026;-66
2022/05/25 00:31:08;;;;;;;5.68;2.78;;;16.80;82.20;;;;;;5029918;28;20017;-66
2022/05/25 00:33:34;;;;;;;5.95;3.40;;;16.80;82.20;;;;;;5012229;28;20151;-66
2022/05/25 00:35:59;;;;;;;5.68;2.70;;;16.80;82.40;;;;;;5004377;28;20101;-66
2022/05/25 00:38:25;;;;;;;4.38;2.90;;;16.80;82.30;;;;;;4997001;28;20496;-66
2022/05/25 00:40:50;;;;;;;6.45;3.13;;;16.70;82.20;;;;;;5001142;28;20030;-67
2022/05/25 00:43:16;;;;;;;5.05;2.90;;;16.70;82.20;;;;;;5007942;28;20034;-66
2022/05/25 00:45:48;;;;;;;4.20;2.60;;;16.70;82.50;;;;;;5013729;28;20421;-66
2022/05/25 00:48:32;;;;;;;3.67;2.47;;;16.70;82.70;;;;;;5010616;28;20040;-66
2022/05/25 00:51:13;;;;;;;3.38;2.40;;;16.60;82.70;;;;;;5000247;28;20079;-67
2022/05/25 00:53:48;;;;;;;4.20;2.80;;;16.60;82.70;;;;;;5022585;28;20036;-67
2022/05/25 00:56:16;;;;;;;4.72;2.58;;;16.50;83.00;;;;;;5007416;28;20061;-67
2022/05/25 00:58:56;;;;;;;3.72;2.53;;;16.40;83.10;;;;;;5012304;28;20113;-67
2022/05/25 01:01:21;;;;;;;3.67;2.80;;;16.30;83.30;;;;;;4993941;28;20039;-67
2022/05/25 01:03:47;;;;;;;4.40;2.97;;;16.30;83.50;;;;;;5015331;28;20044;-67
2022/05/25 01:07:02;;;;;;;3.90;2.90;;;16.30;83.70;;;;;;4996701;28;20025;-67
2022/05/25 01:09:33;;;;;;;3.67;2.80;;;16.20;83.90;;;;;;5003005;28;20050;-67
2022/05/25 01:12:18;;;;;;;4.10;2.90;;;16.10;84.20;;;;;;5000992;28;20033;-67
2022/05/25 01:14:54;;;;;;;3.38;2.50;;;16.10;84.80;;;;;;5009666;28;20057;-66
2022/05/25 01:17:31;;;;;;;5.25;2.65;;;16.10;84.80;;;;;;5007981;28;20026;-66
2022/05/25 01:20:15;;;;;;;4.63;2.90;;;16.10;85.10;;;;;;5028060;28;20030;-67
2022/05/25 01:23:02;;;;;;;4.35;2.97;;;16.10;85.40;;;;;;5003445;28;20062;-67
2022/05/25 01:25:56;;;;;;;4.60;3.22;;;16.10;85.30;;;;;;5006752;28;20116;-67
2022/05/25 01:28:59;;;;;;;3.70;2.70;;;16.20;85.50;;;;;;5020757;28;20112;-66
2022/05/25 01:31:41;;;;;;;3.30;2.70;;;16.10;85.60;;;;;;5002453;28;20117;-66
2022/05/25 01:34:38;;;;;;;5.35;2.85;;;16.10;85.80;;;;;;4995985;28;20026;-66
2022/05/25 01:37:35;;;;;;;4.70;2.85;;;16.20;85.80;;;;;;5020236;28;20065;-67
2022/05/25 01:40:12;;;;;;;4.93;2.67;;;16.20;85.90;;;;;;5029085;28;20025;-67
2022/05/25 01:42:43;;;;;;;4.53;3.00;;;16.20;86.20;;;;;;5013281;28;20038;-66
2022/05/25 01:45:10;;;;;;;6.07;3.15;;;16.20;86.30;;;;;;5008046;28;20038;-66
2022/05/25 01:47:57;;;;;;;5.80;3.08;;;16.10;86.40;;;;;;5013084;28;20030;-66
2022/05/25 01:50:29;;;;;;;3.80;2.72;;;16.00;86.40;;;;;;5023407;28;20022;-66
2022/05/25 01:52:57;;;;;;;5.38;3.33;;;16.00;86.80;;;;;;5015206;28;20027;-66
2022/05/25 01:55:33;;;;;;;5.72;3.65;;;15.90;87.20;;;;;;5010177;28;20099;-66
2022/05/25 01:58:04;;;;;;;5.15;3.53;;;15.90;87.40;;;;;;4999054;28;20038;-66
2022/05/25 02:00:42;;;;;;;4.18;3.08;;;15.90;87.50;;;;;;5013838;28;20065;-67
2022/05/25 02:06:26;;;;;;;4.25;2.83;;;15.80;87.80;;;;;;5006330;28;20105;-67
2022/05/25 02:09:21;;;;;;;3.83;3.05;;;15.80;88.30;;;;;;4995459;28;20089;-66
2022/05/25 02:11:50;;;;;;;4.30;3.15;;;15.70;88.50;;;;;;5003742;28;20034;-66
2022/05/25 02:15:01;;;;;;;4.10;3.20;;;15.70;88.30;;;;;;5004115;28;20029;-67
2022/05/25 02:18:01;;;;;;;3.63;3.10;;;15.70;88.50;;;;;;5010924;28;20044;-66
2022/05/25 02:20:41;;;;;;;7.80;3.33;;;15.70;88.80;;;;;;5007218;28;20096;-66
2022/05/25 02:23:19;;;;;;;4.53;3.10;;;15.70;88.90;;;;;;5019531;28;20029;-66
2022/05/25 02:25:48;;;;;;;4.60;3.38;;;15.60;88.90;;;;;;5017227;28;20029;-66
2022/05/25 02:28:43;;;;;;;5.75;3.30;;;15.60;89.00;;;;;;5021173;28;20033;-66
2022/05/25 02:31:14;;;;;;;6.60;3.38;;;15.60;89.20;;;;;;5013443;28;20076;-66
2022/05/25 02:33:43;;;;;;;4.60;3.42;;;15.60;89.20;;;;;;5026422;28;20048;-67
2022/05/25 02:36:11;;;;;;;5.28;3.50;;;15.60;89.50;;;;;;4999234;28;20034;-66
2022/05/25 02:38:39;;;;;;;7.03;3.88;;;15.60;89.80;;;;;;5008810;28;20030;-66
2022/05/25 02:41:07;;;;;;;6.03;3.65;;;15.60;90.00;;;;;;5009971;28;20049;-67
2022/05/25 02:43:37;;;;;;;7.88;3.33;;;15.60;90.10;;;;;;5027104;28;20034;-66
2022/05/25 02:46:04;;;;;;;5.35;3.50;;;15.60;90.20;;;;;;5009680;28;20361;-66
2022/05/25 02:48:30;;;;;;;5.78;3.30;;;15.70;90.20;;;;;;5014196;28;20414;-66
2022/05/25 02:50:56;;;;;;;4.47;3.50;;;15.70;90.20;;;;;;5013226;28;20049;-66
2022/05/25 02:53:22;;;;;;;5.40;3.65;;;15.80;90.20;;;;;;5012939;28;20052;-66
2022/05/25 02:55:48;;;;;;;4.40;3.22;;;15.80;90.20;;;;;;4991222;28;20025;-67
2022/05/25 02:58:14;;;;;;;4.13;3.22;;;15.80;90.20;;;;;;5013634;28;20148;-68
2022/05/25 03:00:39;;;;;;;3.88;3.05;;;15.90;90.20;;;;;;5010223;28;20573;-67
2022/05/25 03:03:05;;;;;;;4.95;3.47;;;15.90;90.20;;;;;;5011595;28;20040;-67
2022/05/25 03:05:31;;;;;;;3.90;3.33;;;16.00;90.20;;;;;;5011666;28;20053;-67
2022/05/25 03:07:56;;;;;;;4.15;2.95;;;15.90;90.10;;;;;;5003702;28;20064;-66
2022/05/25 03:10:22;;;;;;;5.03;3.25;;;16.00;90.20;;;;;;4995211;28;20456;-66
2022/05/25 03:12:47;;;;;;;4.18;3.40;;;16.00;90.10;;;;;;5030444;28;20068;-66
2022/05/25 03:15:14;;;;;;;4.63;3.53;;;16.10;90.20;;;;;;5021693;28;20384;-66
2022/05/25 03:17:40;;;;;;;7.35;3.35;;;16.10;90.20;;;;;;5005887;28;20036;-65
2022/05/25 03:20:06;;;;;;;3.97;3.05;;;16.20;90.10;;;;;;5013016;28;20054;-65
2022/05/25 03:22:34;;;;;;;4.70;3.13;;;16.20;90.00;;;;;;4994069;28;20054;-66
2022/05/25 03:25:00;;;;;;;3.83;3.08;;;16.20;89.90;;;;;;5018833;28;20367;-66
2022/05/25 03:27:25;;;;;;;4.95;2.92;;;16.30;89.80;;;;;;5013198;28;20041;-65
2022/05/25 03:29:50;;;;;;;3.78;2.97;;;16.30;89.70;;;;;;5012414;28;20117;-66
2022/05/25 03:32:17;;;;;;;4.30;3.40;;;16.30;89.80;;;;;;5013142;28;20033;-66
2022/05/25 03:34:47;;;;;;;5.00;3.38;;;16.40;89.80;;;;;;5012919;28;20029;-64
2022/05/25 03:37:13;;;;;;;7.35;3.80;;;16.40;89.90;;;;;;4993535;28;20036;-68
2022/05/25 03:39:38;;;;;;;5.05;3.00;;;16.50;90.00;;;;;;5012619;28;20033;-67
2022/05/25 03:42:07;;;;;;;4.63;3.10;;;16.50;89.90;;;;;;5009706;28;20021;-64
2022/05/25 03:44:34;;;;;;;4.38;3.33;;;16.60;89.90;;;;;;5027680;28;20038;-64
2022/05/25 03:46:59;;;;;;;4.13;3.10;;;16.60;89.90;;;;;;5004055;28;20057;-64
2022/05/25 03:49:25;;;;;;;4.43;3.25;;;16.60;89.90;;;;;;5009743;28;20567;-64
2022/05/25 03:51:50;;;;;;;5.45;3.75;;;16.70;89.90;;;;;;4997539;28;20034;-64
2022/05/25 03:54:16;;;;;;;3.83;3.03;;;16.60;89.80;;;;;;5001567;28;20030;-64
2022/05/25 03:56:41;;;;;;;5.15;3.45;;;16.70;89.90;;;;;;5006370;28;20382;-65
2022/05/25 03:59:07;;;;;;;4.90;3.45;;;16.70;89.80;;;;;;5008469;28;20026;-66
2022/05/25 04:01:35;;;;;;;4.72;3.63;;;16.80;89.70;;;;;;5010632;28;20116;-66
2022/05/25 04:04:01;;;;;;;4.47;3.38;;;16.80;89.60;;;;;;5004761;28;20086;-65
2022/05/25 04:06:27;;;;;;;4.15;3.00;;;16.80;89.70;;;;;;5004901;28;20027;-66
2022/05/25 04:08:52;;;;;;;4.88;3.55;;;16.90;89.70;;;;;;4992650;28;20045;-66
2022/05/25 04:11:18;;;;;;;4.63;3.30;;;16.90;89.70;;;;;;5009508;28;20029;-66
2022/05/25 04:13:43;;;;;;;4.57;3.30;;;17.00;89.60;;;;;;5007017;28;20109;-66
2022/05/25 04:16:09;;;;;;;5.38;3.10;;;17.00;89.60;;;;;;5000545;28;20479;-66
2022/05/25 04:18:34;;;;;;;5.88;4.00;;;17.10;89.70;;;;;;5008166;28;20087;-67
2022/05/25 04:21:00;;;;;;;6.57;3.92;;;17.10;89.60;;;;;;5011237;28;20378;-67
2022/05/25 04:23:27;;;;;;;5.47;3.80;;;17.20;89.10;;;;;;5011295;28;20124;-67
2022/05/25 04:25:53;;;;;;;4.45;3.50;;;17.20;89.00;;;;;;4997550;28;20034;-67
2022/05/25 04:28:20;;;;;;;5.30;3.28;;;17.20;88.80;;;;;;4992282;28;20087;-67
2022/05/25 04:30:45;;;;;;;4.57;3.50;;;17.30;88.70;;;;;;4992940;28;20066;-67
2022/05/25 04:33:11;;;;;;;6.10;3.53;;;17.30;88.20;;;;;;5004067;28;20062;-66
2022/05/25 04:35:36;;;;;;;6.43;3.65;;;17.40;87.80;;;;;;5000969;28;20088;-66
2022/05/25 04:38:03;;;;;;;4.70;3.50;;;17.40;87.50;;;;;;5004759;28;20030;-68
2022/05/25 04:40:30;;;;;;;4.40;3.30;;;17.50;86.90;;;;;;5009374;28;20022;-67
2022/05/25 04:42:57;;;;;;;5.70;3.65;;;17.50;86.80;;;;;;5009106;28;20477;-67
2022/05/25 04:45:25;;;;;;;4.50;3.33;;;17.50;86.50;;;;;;4997376;28;20022;-67
2022/05/25 04:47:51;;;;;;;5.10;3.42;;;17.50;86.40;;;;;;5004472;28;20041;-67
2022/05/25 04:50:19;;;;;;;4.43;3.30;;;17.60;85.90;;;;;;4994149;28;20030;-66
2022/05/25 04:52:46;;;;;;;4.20;3.38;;;17.60;85.30;;;;;;4996647;28;20057;-67
2022/05/25 04:57:19;;;;;;;4.15;3.42;;;17.70;84.80;;;;;;5003348;28;20037;-66
2022/05/25 04:57:58;;;;;;;3.50;2.90;;;17.70;84.50;;;;;;5002930;28;20507;-66
2022/05/25 05:00:24;;;;;;;5.07;3.50;;;17.70;84.40;;;;;;5003808;28;20080;-67
2022/05/25 05:02:50;;;;;;;5.30;3.35;;;17.80;84.10;;;;;;4995453;28;20038;-67
2022/05/25 05:05:17;;;;;;;7.35;3.45;;;17.80;84.10;;;;;;5009720;28;20405;-67
2022/05/25 05:07:43;;;;;;;4.75;3.40;;;17.90;83.90;;;;;;5009183;28;20029;-67
2022/05/25 05:10:09;;;;;;;4.30;3.50;;;17.90;83.70;;;;;;4991439;28;20050;-66
2022/05/25 05:12:34;;;;;;;5.63;3.20;;;17.90;83.80;;;;;;5007391;28;20044;-67
2022/05/25 05:15:00;;;;;;;5.72;3.58;;;18.00;83.60;;;;;;5006186;28;20038;-67
2022/05/25 05:17:25;;;;;;;4.47;3.47;;;18.10;83.40;;;;;;4991850;28;20076;-67
2022/05/25 05:19:51;;;;;;;5.20;3.30;;;18.20;81.50;;;;;;4996826;28;20393;-66
2022/05/25 05:22:17;;;;;;;5.85;3.30;;;18.20;82.00;;;;;;5003031;28;20034;-66
2022/05/25 05:24:42;;;;;;;4.10;3.00;;;18.20;82.30;;;;;;4992893;28;20030;-67
2022/05/25 05:27:08;;;;;;;4.15;2.80;;;18.30;82.10;;;;;;4992258;28;20640;-66
2022/05/25 05:29:34;;;;;;;4.40;2.85;;;18.40;81.80;;;;;;5002864;28;20485;-66
2022/05/25 05:32:00;;;;;;;5.07;2.90;;;18.50;81.30;;;;;;5001992;28;20022;-66
2022/05/25 05:34:28;;;;;;;4.15;2.97;;;18.60;81.30;;;;;;5005772;28;20026;-66
2022/05/25 05:37:04;;;;;;;3.97;3.08;;;18.70;81.30;;;;;;4995706;28;20800;-67
2022/05/25 05:39:34;;;;;;;5.85;3.20;;;18.80;80.70;;;;;;5009060;28;20030;-66
2022/05/25 05:42:12;;;;;;;3.80;3.40;;;18.90;79.40;;;;;;4998775;28;20039;-66
2022/05/25 05:44:47;;;;;;;4.88;2.80;;;18.80;78.40;;;;;;4994266;28;20053;-66
2022/05/25 05:47:18;;;;;;;3.78;2.97;;;18.80;79.00;;;;;;5010437;28;20022;-66
2022/05/25 05:49:44;;;;;;;3.88;2.55;;;18.90;78.70;;;;;;5002222;28;20038;-65
2022/05/25 05:52:09;;;;;;;6.18;3.47;;;18.90;78.70;;;;;;4992020;28;20372;-65
2022/05/25 05:54:37;;;;;;;5.88;3.35;;;19.00;78.80;;;;;;4994216;28;20049;-65
2022/05/25 05:57:03;;;;;;;4.05;3.20;;;19.00;78.00;;;;;;4997238;28;20486;-65
2022/05/25 05:59:28;;;;;;;5.45;3.30;;;19.00;77.10;;;;;;5003852;28;20034;-66
2022/05/25 06:01:54;;;;;;;11.02;4.05;;;19.00;76.70;;;;;;4993398;28;20072;-66
2022/05/25 06:04:19;;;;;;;5.82;3.13;;;18.90;76.30;;;;;;4991494;28;20133;-66
2022/05/25 06:06:45;;;;;;;6.95;3.88;;;19.00;77.50;;;;;;4990214;28;20030;-65
2022/05/25 06:09:10;;;;;;;5.55;3.92;;;19.00;76.70;;;;;;4990455;28;20042;-66
2022/05/25 06:11:41;;;;;;;5.65;3.78;;;19.10;76.80;;;;;;5009555;28;20060;-66
2022/05/25 06:14:08;;;;;;;4.75;3.33;;;19.10;76.50;;;;;;5013060;28;20029;-67
2022/05/25 06:19:26;;;;;;;7.07;4.15;;;19.20;76.80;;;;;;5011967;28;20088;-67
2022/05/25 06:22:00;;;;;;;5.40;3.83;;;19.30;77.00;;;;;;5001248;28;20034;-66
2022/05/25 06:24:27;;;;;;;5.90;3.97;;;19.40;76.60;;;;;;5008248;28;20136;-66
2022/05/25 06:26:52;;;;;;;5.60;3.53;;;19.40;75.80;;;;;;4997170;28;20117;-66
2022/05/25 06:29:19;;;;;;;5.88;3.47;;;19.50;75.50;;;;;;4994748;28;20115;-66
2022/05/25 06:31:45;;;;;;;6.32;3.55;;;19.50;75.60;;;;;;5013852;28;20492;-65
2022/05/25 06:34:10;;;;;;;5.97;4.15;;;19.60;75.90;;;;;;5000574;28;20030;-68
2022/05/25 06:36:36;;;;;;;5.97;3.38;;;19.70;76.00;;;;;;5012684;28;20026;-67
2022/05/25 06:39:02;;;;;;;5.47;3.63;;;19.70;75.80;;;;;;5005485;28;20022;-67
2022/05/25 06:41:28;;;;;;;5.35;3.53;;;19.80;75.90;;;;;;5004066;28;20472;-67
2022/05/25 06:43:54;;;;;;;5.07;3.28;;;19.90;75.40;;;;;;5001926;28;20030;-67
2022/05/25 06:46:21;;;;;;;5.63;3.20;;;20.00;74.60;;;;;;4999526;28;20027;-67
2022/05/25 06:48:53;;;;;;;6.93;4.10;;;20.10;74.60;;;;;;5007330;28;20033;-67
2022/05/25 06:51:41;;;;;;;6.28;3.38;;;20.30;73.40;;;;;;5009352;28;20473;-68
2022/05/25 06:54:07;;;;;;;4.65;3.63;;;20.20;73.90;;;;;;5008476;28;20384;-67
2022/05/25 06:56:32;;;;;;;7.32;4.03;;;20.30;73.70;;;;;;5011696;28;20113;-66
2022/05/25 06:58:59;;;;;;;4.85;3.17;;;20.30;73.10;;;;;;5024122;28;20043;-67
2022/05/25 07:01:25;;;;;;;6.70;3.72;;;20.40;73.60;;;;;;4998220;28;20030;-67
2022/05/25 07:03:53;;;;;;;5.53;3.17;;;20.40;74.50;;;;;;4993516;28;20053;-67
2022/05/25 07:06:20;;;;;;;4.82;3.28;;;20.60;74.30;;;;;;4996575;28;20027;-67
2022/05/25 07:08:46;;;;;;;5.45;3.78;;;20.70;74.00;;;;;;5004754;28;20121;-68
2022/05/25 07:11:12;;;;;;;4.95;3.40;;;20.80;73.70;;;;;;4999012;28;20100;-67
2022/05/25 07:13:39;;;;;;;5.97;3.13;;;20.80;73.70;;;;;;5002631;28;20428;-68
2022/05/25 07:16:06;;;;;;;6.28;3.78;;;20.90;72.80;;;;;;5009954;28;20083;-68
2022/05/25 07:18:33;;;;;;;4.07;3.13;;;20.90;73.50;;;;;;5012104;28;20438;-68
2022/05/25 07:21:06;;;;;;;7.55;3.30;;;20.90;73.10;;;;;;5001013;28;20038;-68
2022/05/25 07:23:32;;;;;;;4.37;3.23;;;21.00;73.10;;;;;;4994995;28;20045;-68
2022/05/25 07:25:58;;;;;;;5.97;3.50;;;21.00;72.90;;;;;;5011668;28;20021;-68
2022/05/25 07:28:24;;;;;;;5.82;3.55;;;21.00;72.90;;;;;;5012102;28;20033;-67
2022/05/25 07:30:53;;;;;;;5.45;3.17;;;21.10;72.70;;;;;;5004468;28;20516;-68
2022/05/25 07:33:19;;;;;;;4.72;3.30;;;21.20;72.20;;;;;;5011558;28;20057;-67
2022/05/25 07:35:44;;;;;;;3.60;2.90;;;21.10;72.50;;;;;;5006086;28;20062;-67
2022/05/25 07:38:10;;;;;;;4.75;3.10;;;21.20;71.90;;;;;;5011025;28;20052;-68
2022/05/25 07:40:39;;;;;;;3.35;2.97;;;21.30;72.00;;;;;;5004627;28;20026;-67
2022/05/25 07:43:11;;;;;;;4.28;3.00;;;21.30;71.80;;;;;;4997004;28;20072;-68
2022/05/25 07:45:37;;;;;;;6.72;3.00;;;21.30;71.80;;;;;;5008696;28;20040;-68
2022/05/25 07:48:03;;;;;;;3.60;2.40;;;21.40;71.80;;;;;;4992790;28;20101;-68
2022/05/25 07:50:29;;;;;;;3.33;2.40;;;21.40;72.20;;;;;;5007339;28;20501;-68
2022/05/25 07:52:58;;;;;;;3.35;2.30;;;21.50;71.80;;;;;;5016642;28;20134;-68
2022/05/25 07:55:23;;;;;;;4.03;2.85;;;21.50;71.00;;;;;;5011298;28;20036;-68
2022/05/25 07:57:49;;;;;;;3.58;2.97;;;21.50;71.20;;;;;;5015749;28;20018;-68
2022/05/25 08:00:16;;;;;;;3.78;2.72;;;21.60;71.20;;;;;;5009564;28;20056;-68
2022/05/25 08:05:49;;;;;;;3.80;2.22;;;21.60;71.20;;;;;;5001927;28;20035;-67
2022/05/25 08:08:20;;;;;;;5.05;2.55;;;21.60;72.00;;;;;;5005419;28;20022;-68
2022/05/25 08:10:59;;;;;;;4.28;2.95;;;21.60;71.80;;;;;;5003388;28;20053;-68
2022/05/25 08:13:25;;;;;;;4.32;2.45;;;21.60;71.60;;;;;;5005847;28;20034;-68
2022/05/25 08:15:51;;;;;;;3.22;2.67;;;21.60;71.90;;;;;;5000474;28;20073;-67
2022/05/25 08:18:18;;;;;;;3.30;2.50;;;21.60;72.10;;;;;;4994493;28;20076;-67
2022/05/25 08:20:44;;;;;;;4.35;2.80;;;21.60;72.10;;;;;;5003699;28;20029;-67
2022/05/25 08:23:12;;;;;;;4.50;2.55;;;21.60;71.60;;;;;;5008794;28;20492;-67
2022/05/25 08:25:39;;;;;;;4.22;2.70;;;21.60;71.20;;;;;;5007047;28;20061;-67
2022/05/25 08:28:05;;;;;;;3.72;2.50;;;21.60;71.30;;;;;;5005673;28;20038;-68
2022/05/25 08:30:32;;;;;;;3.95;2.67;;;21.60;71.40;;;;;;5009186;28;20113;-68
2022/05/25 08:32:58;;;;;;;5.25;2.70;;;21.60;71.20;;;;;;5010764;28;20026;-68
2022/05/25 08:35:24;;;;;;;3.63;2.55;;;21.60;71.30;;;;;;5015836;28;20030;-67
2022/05/25 08:37:50;;;;;;;3.40;2.30;;;21.70;70.80;;;;;;5011874;28;20034;-67
2022/05/25 08:40:18;;;;;;;3.30;3.00;;;21.70;70.70;;;;;;5011960;28;20030;-68
2022/05/25 08:42:54;;;;;;;4.47;2.70;;;21.70;70.70;;;;;;5000706;28;20362;-67
2022/05/25 08:45:26;;;;;;;5.50;2.97;;;21.70;71.00;;;;;;5014015;28;20041;-68
2022/05/25 08:47:58;;;;;;;4.78;2.92;;;21.70;71.20;;;;;;5015914;28;20366;-68
2022/05/25 08:50:24;;;;;;;4.03;2.80;;;21.70;71.20;;;;;;5014112;28;20065;-68
2022/05/25 08:52:53;;;;;;;4.32;2.72;;;21.80;71.10;;;;;;5014220;28;20025;-68
2022/05/25 08:55:56;;;;;;;3.95;2.47;;;21.80;70.70;;;;;;5019559;28;20033;-68
2022/05/25 08:58:25;;;;;;;4.85;2.60;;;21.80;70.80;;;;;;5005577;28;20033;-68
2022/05/25 09:00:53;;;;;;;6.93;2.63;;;21.80;70.60;;;;;;5010090;28;20030;-68
2022/05/25 09:03:43;;;;;;;4.55;2.58;;;21.80;70.70;;;;;;5014709;28;20029;-67
2022/05/25 09:06:29;;;;;;;4.60;2.65;;;21.90;70.40;;;;;;5007571;28;20109;-68
2022/05/25 09:09:04;;;;;;;4.63;2.47;;;21.90;70.60;;;;;;5012243;28;20038;-67
2022/05/25 09:11:45;;;;;;;3.40;2.17;;;21.80;70.10;;;;;;4992041;28;20084;-67
2022/05/25 09:14:20;;;;;;;4.25;2.13;;;21.80;70.10;;;;;;4992635;28;20037;-68
2022/05/25 09:16:51;;;;;;;3.10;2.22;;;21.80;70.10;;;;;;4992312;28;20080;-68
2022/05/25 09:19:26;;;;;;;4.60;2.20;;;21.80;69.70;;;;;;4992118;28;20057;-68
2022/05/25 09:21:56;;;;;;;4.60;2.17;;;21.80;69.80;;;;;;4992156;28;20089;-68
2022/05/25 09:24:24;;;;;;;3.50;1.92;;;21.90;70.10;;;;;;4992473;28;20034;-68
2022/05/25 09:26:51;;;;;;;4.38;2.35;;;22.00;69.90;;;;;;5010355;28;20101;-68
2022/05/25 09:29:17;;;;;;;3.40;2.45;;;22.00;69.70;;;;;;5010367;28;20033;-68
2022/05/25 09:31:51;;;;;;;4.50;2.50;;;22.10;69.20;;;;;;4992030;28;20041;-67
2022/05/25 09:34:37;;;;;;;4.25;2.28;;;22.20;68.90;;;;;;4990872;28;20409;-68
2022/05/25 09:37:16;;;;;;;2.40;1.83;;;22.20;68.90;;;;;;5010748;28;20034;-68
2022/05/25 09:39:44;;;;;;;3.70;2.15;;;22.20;69.20;;;;;;5010551;28;20037;-68
2022/05/25 09:42:17;;;;;;;5.38;1.98;;;22.20;68.30;;;;;;5011423;28;20051;-67
2022/05/25 09:44:52;;;;;;;3.53;2.00;;;22.20;68.40;;;;;;5005524;28;20035;-68
2022/05/25 09:47:24;;;;;;;4.43;1.80;;;22.20;67.80;;;;;;4991594;28;20452;-67
2022/05/25 09:49:53;;;;;;;2.97;1.92;;;22.20;67.80;;;;;;4999590;28;20034;-68
2022/05/25 09:52:45;;;;;;;3.95;1.80;;;22.30;67.50;;;;;;5015093;28;20022;-68
2022/05/25 09:55:14;;;;;;;2.60;1.90;;;22.40;67.40;;;;;;5013627;28;20034;-68
2022/05/25 09:57:52;;;;;;;2.83;1.70;;;22.50;67.10;;;;;;5012688;28;20374;-67
2022/05/25 10:00:42;;;;;;;2.70;1.60;;;22.60;66.40;;;;;;5003237;28;20030;-68
2022/05/25 10:03:46;;;;;;;1.75;1.40;;;22.70;65.90;;;;;;5012758;28;20401;-68
2022/05/25 10:06:28;;;;;;;2.03;1.65;;;22.80;65.70;;;;;;4990145;28;20049;-67
2022/05/25 10:09:19;;;;;;;3.65;1.85;;;22.90;64.80;;;;;;4992612;28;20372;-69
2022/05/25 10:11:48;;;;;;;2.97;1.65;;;23.00;64.80;;;;;;4994036;28;20046;-68
2022/05/25 10:14:21;;;;;;;2.45;1.40;;;23.10;64.10;;;;;;4994186;28;20053;-67
2022/05/25 10:16:47;;;;;;;2.53;1.40;;;23.20;63.60;;;;;;4995267;28;20034;-68
2022/05/25 10:19:18;;;;;;;2.63;1.33;;;23.30;62.50;;;;;;4994141;28;20018;-68
2022/05/25 10:21:52;;;;;;;2.20;1.38;;;23.30;62.10;;;;;;4995157;28;20389;-67
2022/05/25 10:24:25;;;;;;;3.08;1.50;;;23.30;61.50;;;;;;5009334;28;20389;-68
2022/05/25 10:26:56;;;;;;;3.17;1.10;;;23.20;61.20;;;;;;5014286;28;20029;-68
2022/05/25 10:38:26;;;;;;;3.00;1.30;;;23.20;61.20;;;;;;4994427;28;20581;-68
2022/05/25 10:40:52;;;;;;;2.95;1.65;;;23.10;61.00;;;;;;5008250;28;20473;-69
2022/05/25 10:43:26;;;;;;;4.68;1.55;;;23.20;60.80;;;;;;5013746;28;20056;-68
2022/05/25 10:45:53;;;;;;;1.73;1.45;;;23.30;60.90;;;;;;5000444;28;20072;-68
2022/05/25 10:48:51;;;;;;;2.78;1.48;;;23.30;60.80;;;;;;4994389;28;20145;-67
2022/05/25 10:51:30;;;;;;;1.50;1.30;;;23.30;61.50;;;;;;5005874;28;20513;-68
2022/05/25 10:57:24;;;;;;;4.63;1.60;;;23.40;61.00;;;;;;5012422;28;20109;-68
2022/05/25 11:00:08;;;;;;;3.65;1.35;;;23.50;61.00;;;;;;4993758;28;20513;-68
2022/05/25 11:03:04;;;;;;;1.67;1.00;;;23.50;60.50;;;;;;4994316;28;20027;-68
2022/05/25 11:05:40;;;;;;;2.78;1.27;;;23.50;60.30;;;;;;4999407;28;20046;-68
2022/05/25 11:08:23;;;;;;;2.55;1.35;;;23.50;59.60;;;;;;5011131;28;20493;-68
2022/05/25 11:10:57;;;;;;;2.58;1.40;;;23.40;60.10;;;;;;4999774;28;20049;-67
2022/05/25 11:13:40;;;;;;;2.88;1.50;;;23.40;60.20;;;;;;4994318;28;20030;-67
2022/05/25 11:16:33;;;;;;;2.53;1.48;;;23.30;60.10;;;;;;5009132;28;20037;-68
2022/05/25 11:19:24;;;;;;;1.75;1.30;;;23.30;60.20;;;;;;5010534;28;20125;-68
2022/05/25 11:22:20;;;;;;;2.47;1.08;;;23.30;60.10;;;;;;4999220;28;20030;-68
2022/05/25 11:25:04;;;;;;;2.60;1.10;;;23.40;59.50;;;;;;5012075;28;20069;-68
2022/05/25 11:27:39;;;;;;;1.60;1.15;;;23.40;58.50;;;;;;5013341;28;20029;-68
2022/05/25 11:30:29;;;;;;;3.03;1.20;;;23.40;58.70;;;;;;5004724;28;20030;-69
2022/05/25 11:33:13;;;;;;;3.17;1.20;;;23.40;58.80;;;;;;5003437;28;20055;-68
2022/05/25 11:35:48;;;;;;;3.08;1.20;;;23.40;58.70;;;;;;5008491;28;20075;-67
2022/05/25 11:38:19;;;;;;;2.67;1.23;;;23.40;57.90;;;;;;5008826;28;20026;-68
2022/05/25 11:41:14;;;;;;;4.00;1.30;;;23.30;57.90;;;;;;5000972;28;20038;-67
2022/05/25 11:43:50;;;;;;;;;;;23.30;57.30;;;;;;5009244;28;20129;-68
2022/05/25 11:46:36;;;;;;;1.35;1.17;;;23.30;57.90;;;;;;4995207;28;19948;-67
2022/05/25 11:49:15;;;;;;;3.47;1.40;;;23.20;57.00;;;;;;5003920;28;20037;-67
2022/05/25 11:52:21;;;;;;;2.22;1.40;;;23.10;57.60;;;;;;5007857;28;20202;-67
2022/05/25 11:55:13;;;;;;;2.25;1.25;;;23.00;58.10;;;;;;4999036;28;20030;-67
2022/05/25 11:58:10;;;;;;;3.17;1.20;;;23.10;58.40;;;;;;5010274;28;20030;-68
2022/05/25 12:01:04;;;;;;;1.85;1.10;;;23.20;58.40;;;;;;4996457;28;20041;-68
2022/05/25 12:04:07;;;;;;;2.30;1.13;;;23.30;58.40;;;;;;4993203;28;20045;-67
2022/05/25 12:06:56;;;;;;;1.83;1.35;;;23.40;58.40;;;;;;5009982;28;20312;-68
2022/05/25 12:10:01;;;;;;;1.33;1.17;;;23.50;58.50;;;;;;5005742;28;20042;-68
2022/05/25 12:12:37;;;;;;;3.50;1.25;;;23.50;58.40;;;;;;5008108;28;20030;-68
2022/05/25 12:15:23;;;;;;;2.58;1.10;;;23.50;58.10;;;;;;5005559;28;20041;-68
2022/05/25 12:18:27;;;;;;;1.50;1.13;;;23.50;57.50;;;;;;5009915;28;20035;-67
2022/05/25 12:21:01;;;;;;;2.92;1.10;;;23.60;57.50;;;;;;4999174;28;20034;-68
2022/05/25 12:23:31;;;;;;;2.88;1.20;;;23.60;56.30;;;;;;5005666;28;20033;-68
2022/05/25 12:26:12;;;;;;;2.17;1.08;;;23.50;56.20;;;;;;4996772;28;20035;-69
2022/05/25 12:28:40;;;;;;;1.42;1.05;;;23.50;56.30;;;;;;5013049;28;20034;-68
2022/05/25 12:31:12;;;;;;;2.15;1.25;;;23.40;56.20;;;;;;5013269;28;20033;-68
2022/05/25 12:33:40;;;;;;;2.08;1.10;;;23.40;56.10;;;;;;5009628;28;20093;-68
2022/05/25 12:36:08;;;;;;;1.52;1.30;;;23.50;56.30;;;;;;5022236;28;20087;-68
2022/05/25 12:38:36;;;;;;;1.15;0.95;;;23.60;56.60;;;;;;5015010;28;20029;-68
2022/05/25 12:41:23;;;;;;;1.75;1.15;;;23.70;56.60;;;;;;5010852;28;20034;-67
2022/05/25 12:43:54;;;;;;;4.30;1.40;;;23.80;56.60;;;;;;5003373;28;20141;-68
2022/05/25 12:49:39;;;;;;;3.05;1.17;;;24.00;55.60;;;;;;5000764;28;20497;-68
2022/05/25 12:52:27;;;;;;;3.78;2.03;;;24.10;55.20;;;;;;5019983;28;20045;-69
2022/05/25 12:54:59;;;;;;;2.78;1.33;;;24.20;55.60;;;;;;5006608;28;20133;-68
2022/05/25 12:57:37;;;;;;;2.08;1.20;;;24.30;55.50;;;;;;5020337;28;20034;-66
2022/05/25 13:00:39;;;;;;;1.67;1.30;;;24.40;54.80;;;;;;5004890;28;20023;-68
2022/05/25 13:03:38;;;;;;;2.42;1.45;;;24.50;55.20;;;;;;5006339;28;20120;-68
2022/05/25 13:06:05;;;;;;;1.95;1.20;;;24.60;54.90;;;;;;5009296;28;20030;-68
2022/05/25 13:08:45;;;;;;;3.08;1.52;;;24.70;54.10;;;;;;5010246;28;20125;-68
2022/05/25 13:11:30;;;;;;;3.08;1.73;;;24.80;53.80;;;;;;5004097;28;20120;-68
2022/05/25 13:13:56;;;;;;;2.17;1.45;;;24.70;54.30;;;;;;4999898;28;20113;-68
2022/05/25 13:16:40;;;;;;;2.95;1.30;;;24.70;54.20;;;;;;5018065;28;20041;-68
2022/05/25 13:19:39;;;;;;;2.57;1.40;;;24.70;54.10;;;;;;5010302;28;20026;-67
2022/05/25 13:22:21;;;;;;;2.00;1.30;;;24.60;54.00;;;;;;5000624;28;20396;-68
2022/05/25 13:25:16;;;;;;;4.63;1.45;;;24.50;54.40;;;;;;4999521;28;20038;-68
2022/05/25 13:28:12;;;;;;;2.33;1.33;;;24.50;54.60;;;;;;5003815;28;20490;-68
2022/05/25 13:30:54;;;;;;;5.53;1.70;;;24.40;54.40;;;;;;5004408;28;20100;-67
2022/05/25 13:33:20;;;;;;;4.65;1.30;;;24.40;54.60;;;;;;5014596;28;20033;-68
2022/05/25 13:36:05;;;;;;;3.83;1.40;;;24.30;54.50;;;;;;5013389;28;20044;-68
2022/05/25 13:39:00;;;;;;;1.95;1.20;;;24.30;54.30;;;;;;5017485;28;20057;-67
2022/05/25 13:41:28;;;;;;;;;;;24.20;54.20;;;;;;5008145;28;20048;-68
2022/05/25 13:44:06;;;;;;;3.38;1.20;;;24.00;54.40;;;;;;5004562;28;20365;-68